sensor_id;sensor_type;location;lat;lon;timestamp;temperature;humidity
2477;DHT22;1249;51.270;6.756;2023-08-20T00:01:30;26.20;99.90
2477;DHT22;1249;51.270;6.756;2023-08-20T00:03:56;26.20;99.90
2477;DHT22;1249;51.270;6.756;2023-08-20T00:06:21;26.10;99.90
2477;DHT22;1249;51.270;6.756;2023-08-20T00:08:47;26.10;99.90
2477;DHT22;1249;51.270;6.756;2023-08-20T00:11:12;26.10;99.90
2477;DHT22;1249;51.270;6.756;2023-08-20T00:13:38;26.10;99.90
2477;DHT22;1249;51.270;6.756;2023-08-20T00:16:04;26.10;99.90
2477;DHT22;1249;51.270;6.756;2023-08-20T00:18:29;26.10;99.90
2477;DHT22;1249;51.270;6.756;2023-08-20T00:20:55;26.10;99.90
2477;DHT22;1249;51.270;6.756;2023-08-20T00:23:21;26.10;99.90
2477;DHT22;1249;51.270;6.756;2023-08-20T00:25:47;26.10;99.90
2477;DHT22;1249;51.270;6.756;2023-08-20T00:28:12;26.10;99.90
2477;DHT22;1249;51.270;6.756;2023-08-20T00:30:39;26.10;99.90
2477;DHT22;1249;51.270;6.756;2023-08-20T00:33:04;26.10;99.90
2477;DHT22;1249;51.270;6.756;2023-08-20T00:35:30;26.10;99.90
2477;DHT22;1249;51.270;6.756;2023-08-20T00:37:55;26.10;99.90
2477;DHT22;1249;51.270;6.756;2023-08-20T00:40:21;26.00;99.90
2477;DHT22;1249;51.270;6.756;2023-08-20T00:42:46;26.00;99.90
2477;DHT22;1249;51.270;6.756;2023-08-20T00:45:12;26.00;99.90
2477;DHT22;1249;51.270;6.756;2023-08-20T00:47:37;26.00;99.90
2477;DHT22;1249;51.270;6.756;2023-08-20T00:50:04;26.00;99.90
2477;DHT22;1249;51.270;6.756;2023-08-20T00:52:32;26.00;99.90
2477;DHT22;1249;51.270;6.756;2023-08-20T00:54:58;26.00;99.90
2477;DHT22;1249;51.270;6.756;2023-08-20T00:57:24;26.00;99.90
2477;DHT22;1249;51.270;6.756;2023-08-20T00:59:50;26.00;99.90
2477;DHT22;1249;51.270;6.756;2023-08-20T01:02:18;26.00;99.90
2477;DHT22;1249;51.270;6.756;2023-08-20T01:04:45;25.90;99.90
2477;DHT22;1249;51.270;6.756;2023-08-20T01:07:15;25.90;99.90
2477;DHT22;1249;51.270;6.756;2023-08-20T01:10:29;25.90;99.90
2477;DHT22;1249;51.270;6.756;2023-08-20T01:12:28;25.90;99.90
2477;DHT22;1249;51.270;6.756;2023-08-20T01:14:54;25.90;99.90
2477;DHT22;1249;51.270;6.756;2023-08-20T01:17:20;25.90;99.90
2477;DHT22;1249;51.270;6.756;2023-08-20T01:19:45;25.90;99.90
2477;DHT22;1249;51.270;6.756;2023-08-20T01:30:16;25.90;99.90
2477;DHT22;1249;51.270;6.756;2023-08-20T01:32:43;25.90;99.90
2477;DHT22;1249;51.270;6.756;2023-08-20T01:35:11;25.90;99.90
2477;DHT22;1249;51.270;6.756;2023-08-20T01:37:37;25.80;99.90
2477;DHT22;1249;51.270;6.756;2023-08-20T01:40:03;25.80;99.90
2477;DHT22;1249;51.270;6.756;2023-08-20T01:42:29;25.80;99.90
2477;DHT22;1249;51.270;6.756;2023-08-20T01:44:54;25.80;99.90
2477;DHT22;1249;51.270;6.756;2023-08-20T01:47:20;25.80;99.90
2477;DHT22;1249;51.270;6.756;2023-08-20T01:49:45;25.80;99.90
2477;DHT22;1249;51.270;6.756;2023-08-20T01:52:10;25.80;99.90
2477;DHT22;1249;51.270;6.756;2023-08-20T01:54:36;25.80;99.90
2477;DHT22;1249;51.270;6.756;2023-08-20T01:57:01;25.80;99.90
2477;DHT22;1249;51.270;6.756;2023-08-20T01:59:27;25.80;99.90
2477;DHT22;1249;51.270;6.756;2023-08-20T02:01:53;25.80;99.90
2477;DHT22;1249;51.270;6.756;2023-08-20T02:04:18;25.80;99.90
2477;DHT22;1249;51.270;6.756;2023-08-20T02:06:44;25.80;99.90
2477;DHT22;1249;51.270;6.756;2023-08-20T02:09:10;25.80;99.90
2477;DHT22;1249;51.270;6.756;2023-08-20T02:11:35;25.80;99.90
2477;DHT22;1249;51.270;6.756;2023-08-20T02:14:04;25.80;99.90
2477;DHT22;1249;51.270;6.756;2023-08-20T02:16:29;25.80;99.90
2477;DHT22;1249;51.270;6.756;2023-08-20T02:18:55;25.80;99.90
2477;DHT22;1249;51.270;6.756;2023-08-20T02:21:20;25.80;99.90
2477;DHT22;1249;51.270;6.756;2023-08-20T02:23:45;25.80;99.90
2477;DHT22;1249;51.270;6.756;2023-08-20T02:26:11;25.80;99.90
2477;DHT22;1249;51.270;6.756;2023-08-20T02:28:36;25.80;99.90
2477;DHT22;1249;51.270;6.756;2023-08-20T02:31:05;25.80;99.90
2477;DHT22;1249;51.270;6.756;2023-08-20T02:33:31;25.70;99.90
2477;DHT22;1249;51.270;6.756;2023-08-20T02:36:02;25.70;99.90
2477;DHT22;1249;51.270;6.756;2023-08-20T02:38:28;25.70;99.90
2477;DHT22;1249;51.270;6.756;2023-08-20T02:40:54;25.70;99.90
2477;DHT22;1249;51.270;6.756;2023-08-20T02:43:19;25.70;99.90
2477;DHT22;1249;51.270;6.756;2023-08-20T02:45:44;25.70;99.90
2477;DHT22;1249;51.270;6.756;2023-08-20T02:48:10;25.70;99.90
2477;DHT22;1249;51.270;6.756;2023-08-20T02:50:36;25.70;99.90
2477;DHT22;1249;51.270;6.756;2023-08-20T02:53:01;25.70;99.90
2477;DHT22;1249;51.270;6.756;2023-08-20T02:55:26;25.70;99.90
2477;DHT22;1249;51.270;6.756;2023-08-20T02:57:52;25.70;99.90
2477;DHT22;1249;51.270;6.756;2023-08-20T03:00:17;25.70;99.90
2477;DHT22;1249;51.270;6.756;2023-08-20T03:02:43;25.70;99.90
2477;DHT22;1249;51.270;6.756;2023-08-20T03:05:09;25.70;99.90
2477;DHT22;1249;51.270;6.756;2023-08-20T03:07:35;25.70;99.90
2477;DHT22;1249;51.270;6.756;2023-08-20T03:10:00;25.70;99.90
2477;DHT22;1249;51.270;6.756;2023-08-20T03:12:26;25.70;99.90
2477;DHT22;1249;51.270;6.756;2023-08-20T03:14:51;25.70;99.90
2477;DHT22;1249;51.270;6.756;2023-08-20T03:17:17;25.70;99.90
2477;DHT22;1249;51.270;6.756;2023-08-20T03:19:59;25.70;99.90
2477;DHT22;1249;51.270;6.756;2023-08-20T03:22:25;25.70;99.90
2477;DHT22;1249;51.270;6.756;2023-08-20T03:24:51;25.70;99.90
2477;DHT22;1249;51.270;6.756;2023-08-20T03:27:16;25.70;99.90
2477;DHT22;1249;51.270;6.756;2023-08-20T03:29:42;25.70;99.90
2477;DHT22;1249;51.270;6.756;2023-08-20T03:32:07;25.70;99.90
2477;DHT22;1249;51.270;6.756;2023-08-20T03:34:33;25.70;99.90
2477;DHT22;1249;51.270;6.756;2023-08-20T03:36:58;25.70;99.90
2477;DHT22;1249;51.270;6.756;2023-08-20T03:39:24;25.70;99.90
2477;DHT22;1249;51.270;6.756;2023-08-20T03:41:50;25.70;99.90
2477;DHT22;1249;51.270;6.756;2023-08-20T03:44:15;25.70;99.90
2477;DHT22;1249;51.270;6.756;2023-08-20T03:46:40;25.80;99.90
2477;DHT22;1249;51.270;6.756;2023-08-20T03:49:06;25.70;99.90
2477;DHT22;1249;51.270;6.756;2023-08-20T03:51:31;25.70;99.90
2477;DHT22;1249;51.270;6.756;2023-08-20T03:53:57;25.70;99.90
2477;DHT22;1249;51.270;6.756;2023-08-20T03:56:22;25.70;99.90
2477;DHT22;1249;51.270;6.756;2023-08-20T03:58:48;25.70;99.90
2477;DHT22;1249;51.270;6.756;2023-08-20T04:01:13;25.70;99.90
2477;DHT22;1249;51.270;6.756;2023-08-20T04:03:39;25.70;99.90
2477;DHT22;1249;51.270;6.756;2023-08-20T04:06:04;25.70;99.90
2477;DHT22;1249;51.270;6.756;2023-08-20T04:08:29;25.70;99.90
2477;DHT22;1249;51.270;6.756;2023-08-20T04:10:55;25.70;99.90
2477;DHT22;1249;51.270;6.756;2023-08-20T04:13:20;25.60;99.90
2477;DHT22;1249;51.270;6.756;2023-08-20T04:15:46;25.70;99.90
2477;DHT22;1249;51.270;6.756;2023-08-20T04:18:11;25.70;99.90
2477;DHT22;1249;51.270;6.756;2023-08-20T04:20:37;25.70;99.90
2477;DHT22;1249;51.270;6.756;2023-08-20T04:23:02;25.70;99.90
2477;DHT22;1249;51.270;6.756;2023-08-20T04:25:28;25.70;99.90
2477;DHT22;1249;51.270;6.756;2023-08-20T04:27:53;25.60;99.90
2477;DHT22;1249;51.270;6.756;2023-08-20T04:30:19;25.60;99.90
2477;DHT22;1249;51.270;6.756;2023-08-20T04:32:45;25.60;99.90
2477;DHT22;1249;51.270;6.756;2023-08-20T04:35:10;25.60;99.90
2477;DHT22;1249;51.270;6.756;2023-08-20T04:37:36;25.60;99.90
2477;DHT22;1249;51.270;6.756;2023-08-20T04:40:01;25.60;99.90
2477;DHT22;1249;51.270;6.756;2023-08-20T04:42:29;25.60;99.90
2477;DHT22;1249;51.270;6.756;2023-08-20T04:44:55;25.60;99.90
2477;DHT22;1249;51.270;6.756;2023-08-20T04:47:20;25.60;99.90
2477;DHT22;1249;51.270;6.756;2023-08-20T04:49:46;25.60;99.90
2477;DHT22;1249;51.270;6.756;2023-08-20T04:52:11;25.60;99.90
2477;DHT22;1249;51.270;6.756;2023-08-20T04:54:37;25.50;99.90
2477;DHT22;1249;51.270;6.756;2023-08-20T04:57:02;25.50;99.90
2477;DHT22;1249;51.270;6.756;2023-08-20T04:59:28;25.50;99.90
2477;DHT22;1249;51.270;6.756;2023-08-20T05:01:54;25.50;99.90
2477;DHT22;1249;51.270;6.756;2023-08-20T05:04:19;25.50;99.90
2477;DHT22;1249;51.270;6.756;2023-08-20T05:06:45;25.50;99.90
2477;DHT22;1249;51.270;6.756;2023-08-20T05:09:10;25.50;99.90
2477;DHT22;1249;51.270;6.756;2023-08-20T05:11:36;25.40;99.90
2477;DHT22;1249;51.270;6.756;2023-08-20T05:14:01;25.40;99.90
2477;DHT22;1249;51.270;6.756;2023-08-20T05:16:27;25.40;99.90
2477;DHT22;1249;51.270;6.756;2023-08-20T05:18:52;25.40;99.90
2477;DHT22;1249;51.270;6.756;2023-08-20T05:21:18;24.80;99.90
2477;DHT22;1249;51.270;6.756;2023-08-20T05:23:43;23.30;99.90
2477;DHT22;1249;51.270;6.756;2023-08-20T05:26:09;22.60;99.90
2477;DHT22;1249;51.270;6.756;2023-08-20T05:28:35;22.20;99.90
2477;DHT22;1249;51.270;6.756;2023-08-20T05:31:00;22.00;99.90
2477;DHT22;1249;51.270;6.756;2023-08-20T05:33:25;21.80;99.90
2477;DHT22;1249;51.270;6.756;2023-08-20T05:35:51;22.00;99.90
2477;DHT22;1249;51.270;6.756;2023-08-20T05:38:17;21.80;99.90
2477;DHT22;1249;51.270;6.756;2023-08-20T05:40:43;21.70;99.90
2477;DHT22;1249;51.270;6.756;2023-08-20T05:43:08;22.10;99.90
2477;DHT22;1249;51.270;6.756;2023-08-20T05:45:33;22.50;99.90
2477;DHT22;1249;51.270;6.756;2023-08-20T05:47:59;22.80;99.90
2477;DHT22;1249;51.270;6.756;2023-08-20T05:50:25;22.90;99.90
2477;DHT22;1249;51.270;6.756;2023-08-20T05:52:51;22.80;99.90
2477;DHT22;1249;51.270;6.756;2023-08-20T05:55:17;22.90;99.90
2477;DHT22;1249;51.270;6.756;2023-08-20T05:57:42;23.00;99.90
2477;DHT22;1249;51.270;6.756;2023-08-20T06:00:08;23.20;99.90
2477;DHT22;1249;51.270;6.756;2023-08-20T06:02:34;23.30;99.90
2477;DHT22;1249;51.270;6.756;2023-08-20T06:04:59;23.30;99.90
